sensor_id;sensor_type;location;lat;lon;timestamp;temperature;humidity
3734;HTU21D;1882;52.256;8.874;2024-03-02T00:01:35;8.00;67.20
3734;HTU21D;1882;52.256;8.874;2024-03-02T00:04:04;8.00;67.80
3734;HTU21D;1882;52.256;8.874;2024-03-02T00:06:33;8.00;67.40
3734;HTU21D;1882;52.256;8.874;2024-03-02T00:09:01;8.00;67.20
3734;HTU21D;1882;52.256;8.874;2024-03-02T00:11:28;8.00;67.90
3734;HTU21D;1882;52.256;8.874;2024-03-02T00:13:55;8.00;67.00
3734;HTU21D;1882;52.256;8.874;2024-03-02T00:16:22;8.00;67.60
3734;HTU21D;1882;52.256;8.874;2024-03-02T00:18:50;7.90;68.30
3734;HTU21D;1882;52.256;8.874;2024-03-02T00:21:17;7.90;68.60
3734;HTU21D;1882;52.256;8.874;2024-03-02T00:23:48;7.90;68.70
3734;HTU21D;1882;52.256;8.874;2024-03-02T00:26:18;7.90;69.30
3734;HTU21D;1882;52.256;8.874;2024-03-02T00:28:45;7.90;69.70
3734;HTU21D;1882;52.256;8.874;2024-03-02T00:31:13;7.90;69.30
3734;HTU21D;1882;52.256;8.874;2024-03-02T00:33:42;7.90;69.70
3734;HTU21D;1882;52.256;8.874;2024-03-02T00:36:12;7.90;69.30
3734;HTU21D;1882;52.256;8.874;2024-03-02T00:38:55;7.90;69.80
3734;HTU21D;1882;52.256;8.874;2024-03-02T00:41:26;7.80;70.40
3734;HTU21D;1882;52.256;8.874;2024-03-02T00:43:58;7.80;71.70
3734;HTU21D;1882;52.256;8.874;2024-03-02T00:46:26;7.80;71.70
3734;HTU21D;1882;52.256;8.874;2024-03-02T00:48:58;7.80;71.90
3734;HTU21D;1882;52.256;8.874;2024-03-02T00:51:33;7.80;72.30
3734;HTU21D;1882;52.256;8.874;2024-03-02T00:54:05;7.80;71.80
3734;HTU21D;1882;52.256;8.874;2024-03-02T00:56:33;7.80;72.20
3734;HTU21D;1882;52.256;8.874;2024-03-02T00:59:02;7.70;72.30
3734;HTU21D;1882;52.256;8.874;2024-03-02T01:01:28;7.70;73.70
3734;HTU21D;1882;52.256;8.874;2024-03-02T01:03:55;7.70;73.90
3734;HTU21D;1882;52.256;8.874;2024-03-02T01:06:23;7.60;74.20
3734;HTU21D;1882;52.256;8.874;2024-03-02T01:08:50;7.60;74.80
3734;HTU21D;1882;52.256;8.874;2024-03-02T01:11:19;7.60;75.00
3734;HTU21D;1882;52.256;8.874;2024-03-02T01:13:50;7.60;75.10
3734;HTU21D;1882;52.256;8.874;2024-03-02T01:16:17;7.60;74.80
3734;HTU21D;1882;52.256;8.874;2024-03-02T01:18:44;7.60;74.90
3734;HTU21D;1882;52.256;8.874;2024-03-02T01:21:11;7.60;75.80
3734;HTU21D;1882;52.256;8.874;2024-03-02T01:23:38;7.60;75.70
3734;HTU21D;1882;52.256;8.874;2024-03-02T01:26:05;7.60;75.80
3734;HTU21D;1882;52.256;8.874;2024-03-02T01:28:32;7.60;75.80
3734;HTU21D;1882;52.256;8.874;2024-03-02T01:30:59;7.60;75.80
3734;HTU21D;1882;52.256;8.874;2024-03-02T01:33:26;7.60;75.80
3734;HTU21D;1882;52.256;8.874;2024-03-02T01:35:53;7.50;75.70
3734;HTU21D;1882;52.256;8.874;2024-03-02T01:38:20;7.50;75.90
3734;HTU21D;1882;52.256;8.874;2024-03-02T01:40:47;7.50;76.40
3734;HTU21D;1882;52.256;8.874;2024-03-02T01:43:14;7.50;77.00
3734;HTU21D;1882;52.256;8.874;2024-03-02T01:45:41;7.50;76.70
3734;HTU21D;1882;52.256;8.874;2024-03-02T01:48:08;7.50;77.20
3734;HTU21D;1882;52.256;8.874;2024-03-02T01:50:36;7.40;77.80
3734;HTU21D;1882;52.256;8.874;2024-03-02T01:53:03;7.40;78.10
3734;HTU21D;1882;52.256;8.874;2024-03-02T01:55:30;7.40;78.70
3734;HTU21D;1882;52.256;8.874;2024-03-02T01:57:57;7.40;79.40
3734;HTU21D;1882;52.256;8.874;2024-03-02T02:00:26;7.40;79.20
3734;HTU21D;1882;52.256;8.874;2024-03-02T02:02:54;7.40;79.30
3734;HTU21D;1882;52.256;8.874;2024-03-02T02:05:21;7.50;79.80
3734;HTU21D;1882;52.256;8.874;2024-03-02T02:07:48;7.50;78.50
3734;HTU21D;1882;52.256;8.874;2024-03-02T02:10:15;7.40;78.80
3734;HTU21D;1882;52.256;8.874;2024-03-02T02:12:42;7.40;78.80
3734;HTU21D;1882;52.256;8.874;2024-03-02T02:17:49;7.40;79.10
3734;HTU21D;1882;52.256;8.874;2024-03-02T02:20:16;7.30;80.80
3734;HTU21D;1882;52.256;8.874;2024-03-02T02:22:59;7.30;81.90
3734;HTU21D;1882;52.256;8.874;2024-03-02T02:25:27;7.30;82.70
3734;HTU21D;1882;52.256;8.874;2024-03-02T02:27:55;7.30;83.40
3734;HTU21D;1882;52.256;8.874;2024-03-02T02:30:28;7.30;84.20
3734;HTU21D;1882;52.256;8.874;2024-03-02T02:32:55;7.20;84.40
3734;HTU21D;1882;52.256;8.874;2024-03-02T02:35:24;7.20;85.60
3734;HTU21D;1882;52.256;8.874;2024-03-02T02:37:52;7.20;85.70
3734;HTU21D;1882;52.256;8.874;2024-03-02T02:40:20;7.10;88.40
3734;HTU21D;1882;52.256;8.874;2024-03-02T02:42:47;7.00;89.60
3734;HTU21D;1882;52.256;8.874;2024-03-02T02:45:14;7.00;91.00
3734;HTU21D;1882;52.256;8.874;2024-03-02T02:47:42;7.00;91.00
3734;HTU21D;1882;52.256;8.874;2024-03-02T02:50:11;7.00;91.10
3734;HTU21D;1882;52.256;8.874;2024-03-02T02:52:40;7.00;91.80
3734;HTU21D;1882;52.256;8.874;2024-03-02T02:55:09;6.90;91.70
3734;HTU21D;1882;52.256;8.874;2024-03-02T02:57:37;6.90;92.20
3734;HTU21D;1882;52.256;8.874;2024-03-02T03:00:14;6.90;93.40
3734;HTU21D;1882;52.256;8.874;2024-03-02T03:02:45;6.80;94.00
3734;HTU21D;1882;52.256;8.874;2024-03-02T03:05:13;6.80;95.90
3734;HTU21D;1882;52.256;8.874;2024-03-02T03:07:41;6.70;96.60
3734;HTU21D;1882;52.256;8.874;2024-03-02T03:10:08;6.80;96.80
3734;HTU21D;1882;52.256;8.874;2024-03-02T03:12:35;6.80;97.70
3734;HTU21D;1882;52.256;8.874;2024-03-02T03:15:03;6.80;98.00
3734;HTU21D;1882;52.256;8.874;2024-03-02T03:17:34;6.90;97.60
3734;HTU21D;1882;52.256;8.874;2024-03-02T03:20:02;6.90;97.30
3734;HTU21D;1882;52.256;8.874;2024-03-02T03:22:31;6.90;97.40
3734;HTU21D;1882;52.256;8.874;2024-03-02T03:25:02;7.00;97.60
3734;HTU21D;1882;52.256;8.874;2024-03-02T03:27:30;7.00;97.60
3734;HTU21D;1882;52.256;8.874;2024-03-02T03:29:57;6.90;97.70
3734;HTU21D;1882;52.256;8.874;2024-03-02T03:32:24;6.80;98.30
3734;HTU21D;1882;52.256;8.874;2024-03-02T03:34:51;6.80;99.00
3734;HTU21D;1882;52.256;8.874;2024-03-02T03:37:18;6.80;99.30
3734;HTU21D;1882;52.256;8.874;2024-03-02T03:39:45;6.70;99.90
3734;HTU21D;1882;52.256;8.874;2024-03-02T03:42:12;6.70;99.90
3734;HTU21D;1882;52.256;8.874;2024-03-02T03:44:39;6.70;99.90
3734;HTU21D;1882;52.256;8.874;2024-03-02T03:47:07;6.80;99.90
3734;HTU21D;1882;52.256;8.874;2024-03-02T03:49:34;6.80;99.90
3734;HTU21D;1882;52.256;8.874;2024-03-02T03:52:01;6.80;99.90
3734;HTU21D;1882;52.256;8.874;2024-03-02T03:54:28;6.90;99.90
3734;HTU21D;1882;52.256;8.874;2024-03-02T03:56:55;6.90;99.90
3734;HTU21D;1882;52.256;8.874;2024-03-02T03:59:22;6.80;99.90
3734;HTU21D;1882;52.256;8.874;2024-03-02T04:01:50;6.80;99.90
3734;HTU21D;1882;52.256;8.874;2024-03-02T04:04:17;6.80;99.90
3734;HTU21D;1882;52.256;8.874;2024-03-02T04:06:44;6.80;99.90
3734;HTU21D;1882;52.256;8.874;2024-03-02T04:09:11;6.80;99.90
3734;HTU21D;1882;52.256;8.874;2024-03-02T04:11:38;6.90;99.90
3734;HTU21D;1882;52.256;8.874;2024-03-02T04:14:05;6.90;99.90
3734;HTU21D;1882;52.256;8.874;2024-03-02T04:16:33;6.90;99.90
3734;HTU21D;1882;52.256;8.874;2024-03-02T04:19:00;6.90;99.90
3734;HTU21D;1882;52.256;8.874;2024-03-02T04:21:27;6.90;99.90
3734;HTU21D;1882;52.256;8.874;2024-03-02T04:23:54;6.90;99.90
3734;HTU21D;1882;52.256;8.874;2024-03-02T04:26:25;7.00;99.90
3734;HTU21D;1882;52.256;8.874;2024-03-02T04:28:53;6.90;99.90
3734;HTU21D;1882;52.256;8.874;2024-03-02T04:31:20;6.90;99.90
3734;HTU21D;1882;52.256;8.874;2024-03-02T04:33:48;6.90;99.90
3734;HTU21D;1882;52.256;8.874;2024-03-02T04:36:15;6.90;99.90
3734;HTU21D;1882;52.256;8.874;2024-03-02T04:38:42;6.90;99.90
3734;HTU21D;1882;52.256;8.874;2024-03-02T04:41:09;6.90;99.90
3734;HTU21D;1882;52.256;8.874;2024-03-02T04:43:36;6.90;99.90
3734;HTU21D;1882;52.256;8.874;2024-03-02T04:46:02;7.00;99.90
3734;HTU21D;1882;52.256;8.874;2024-03-02T04:48:29;7.00;99.90
3734;HTU21D;1882;52.256;8.874;2024-03-02T04:50:56;7.00;99.90
3734;HTU21D;1882;52.256;8.874;2024-03-02T04:53:23;7.00;99.90
3734;HTU21D;1882;52.256;8.874;2024-03-02T04:55:50;7.00;99.90
3734;HTU21D;1882;52.256;8.874;2024-03-02T04:58:36;7.00;99.90
3734;HTU21D;1882;52.256;8.874;2024-03-02T05:01:03;7.00;99.90
3734;HTU21D;1882;52.256;8.874;2024-03-02T05:03:30;7.00;99.90
3734;HTU21D;1882;52.256;8.874;2024-03-02T05:05:57;7.00;99.90
3734;HTU21D;1882;52.256;8.874;2024-03-02T05:08:24;6.90;99.90
3734;HTU21D;1882;52.256;8.874;2024-03-02T05:10:51;6.90;99.90
3734;HTU21D;1882;52.256;8.874;2024-03-02T05:13:18;6.90;99.90
3734;HTU21D;1882;52.256;8.874;2024-03-02T05:15:47;6.90;99.90
3734;HTU21D;1882;52.256;8.874;2024-03-02T05:18:14;6.90;99.90
3734;HTU21D;1882;52.256;8.874;2024-03-02T05:20:41;6.90;99.90
3734;HTU21D;1882;52.256;8.874;2024-03-02T05:23:08;6.90;99.90
3734;HTU21D;1882;52.256;8.874;2024-03-02T05:25:35;6.90;99.90
3734;HTU21D;1882;52.256;8.874;2024-03-02T05:28:02;6.90;99.90
3734;HTU21D;1882;52.256;8.874;2024-03-02T05:30:29;6.90;99.90
3734;HTU21D;1882;52.256;8.874;2024-03-02T05:32:56;6.80;99.90
3734;HTU21D;1882;52.256;8.874;2024-03-02T05:35:23;6.80;99.90
3734;HTU21D;1882;52.256;8.874;2024-03-02T05:37:50;6.80;99.90
3734;HTU21D;1882;52.256;8.874;2024-03-02T05:40:17;6.80;99.90
3734;HTU21D;1882;52.256;8.874;2024-03-02T05:42:46;6.70;99.90
3734;HTU21D;1882;52.256;8.874;2024-03-02T05:45:14;6.80;99.90
3734;HTU21D;1882;52.256;8.874;2024-03-02T05:47:43;6.70;99.90
3734;HTU21D;1882;52.256;8.874;2024-03-02T05:50:10;6.70;99.90
3734;HTU21D;1882;52.256;8.874;2024-03-02T05:52:37;6.70;99.90
3734;HTU21D;1882;52.256;8.874;2024-03-02T05:55:04;6.80;99.90
3734;HTU21D;1882;52.256;8.874;2024-03-02T05:57:31;6.70;99.90
3734;HTU21D;1882;52.256;8.874;2024-03-02T06:00:12;6.70;99.90
3734;HTU21D;1882;52.256;8.874;2024-03-02T06:02:40;6.60;99.90
3734;HTU21D;1882;52.256;8.874;2024-03-02T06:05:07;6.70;99.90
3734;HTU21D;1882;52.256;8.874;2024-03-02T06:07:34;6.70;99.90
3734;HTU21D;1882;52.256;8.874;2024-03-02T06:10:01;6.70;99.90
3734;HTU21D;1882;52.256;8.874;2024-03-02T06:12:30;6.70;99.90
3734;HTU21D;1882;52.256;8.874;2024-03-02T06:14:57;6.60;99.90
3734;HTU21D;1882;52.256;8.874;2024-03-02T06:17:24;6.60;99.90
3734;HTU21D;1882;52.256;8.874;2024-03-02T06:19:51;6.70;99.90
3734;HTU21D;1882;52.256;8.874;2024-03-02T06:22:17;6.70;99.90
3734;HTU21D;1882;52.256;8.874;2024-03-02T06:24:45;6.80;99.90
3734;HTU21D;1882;52.256;8.874;2024-03-02T06:27:12;6.80;99.90
3734;HTU21D;1882;52.256;8.874;2024-03-02T06:29:39;6.80;99.90
3734;HTU21D;1882;52.256;8.874;2024-03-02T06:32:06;6.90;99.90
3734;HTU21D;1882;52.256;8.874;2024-03-02T06:34:33;7.00;99.90
3734;HTU21D;1882;52.256;8.874;2024-03-02T06:37:00;7.00;99.90
3734;HTU21D;1882;52.256;8.874;2024-03-02T06:39:27;7.10;99.90
3734;HTU21D;1882;52.256;8.874;2024-03-02T06:41:54;7.10;99.90
3734;HTU21D;1882;52.256;8.874;2024-03-02T06:44:20;7.20;99.90
3734;HTU21D;1882;52.256;8.874;2024-03-02T06:46:48;7.30;99.90
3734;HTU21D;1882;52.256;8.874;2024-03-02T06:49:14;7.30;99.90
3734;HTU21D;1882;52.256;8.874;2024-03-02T06:51:44;7.40;99.90
3734;HTU21D;1882;52.256;8.874;2024-03-02T06:54:11;7.40;99.90
3734;HTU21D;1882;52.256;8.874;2024-03-02T06:56:38;7.50;99.90
3734;HTU21D;1882;52.256;8.874;2024-03-02T06:59:05;7.60;99.90
3734;HTU21D;1882;52.256;8.874;2024-03-02T07:01:32;7.60;99.90
3734;HTU21D;1882;52.256;8.874;2024-03-02T07:03:59;7.70;99.90
3734;HTU21D;1882;52.256;8.874;2024-03-02T07:06:26;7.80;99.90
3734;HTU21D;1882;52.256;8.874;2024-03-02T07:08:53;7.80;99.90
3734;HTU21D;1882;52.256;8.874;2024-03-02T07:11:20;7.90;99.90
3734;HTU21D;1882;52.256;8.874;2024-03-02T07:13:47;8.00;99.90
3734;HTU21D;1882;52.256;8.874;2024-03-02T07:16:14;8.00;99.90
3734;HTU21D;1882;52.256;8.874;2024-03-02T07:18:59;8.10;99.90
3734;HTU21D;1882;52.256;8.874;2024-03-02T07:21:28;8.10;99.90
3734;HTU21D;1882;52.256;8.874;2024-03-02T07:23:55;8.10;99.90
3734;HTU21D;1882;52.256;8.874;2024-03-02T07:26:22;8.10;99.90
3734;HTU21D;1882;52.256;8.874;2024-03-02T07:28:52;8.10;99.90
3734;HTU21D;1882;52.256;8.874;2024-03-02T07:31:19;8.10;99.90
3734;HTU21D;1882;52.256;8.874;2024-03-02T07:33:46;8.10;99.90
3734;HTU21D;1882;52.256;8.874;2024-03-02T07:36:13;8.10;99.90
3734;HTU21D;1882;52.256;8.874;2024-03-02T07:38:41;8.10;99.90
3734;HTU21D;1882;52.256;8.874;2024-03-02T07:41:09;8.20;99.90
3734;HTU21D;1882;52.256;8.874;2024-03-02T07:43:38;8.20;99.90
3734;HTU21D;1882;52.256;8.874;2024-03-02T07:46:05;8.20;99.90
3734;HTU21D;1882;52.256;8.874;2024-03-02T07:48:32;8.20;99.90
3734;HTU21D;1882;52.256;8.874;2024-03-02T07:50:59;8.30;99.90
3734;HTU21D;1882;52.256;8.874;2024-03-02T07:53:27;8.30;99.90
3734;HTU21D;1882;52.256;8.874;2024-03-02T07:55:54;8.40;99.90
3734;HTU21D;1882;52.256;8.874;2024-03-02T07:58:20;8.40;99.90
3734;HTU21D;1882;52.256;8.874;2024-03-02T08:00:48;8.50;99.90
3734;HTU21D;1882;52.256;8.874;2024-03-02T08:03:18;8.50;99.90
3734;HTU21D;1882;52.256;8.874;2024-03-02T08:05:45;8.50;99.90
3734;HTU21D;1882;52.256;8.874;2024-03-02T08:08:12;8.50;99.90
3734;HTU21D;1882;52.256;8.874;2024-03-02T08:10:39;8.50;99.90
3734;HTU21D;1882;52.256;8.874;2024-03-02T08:13:06;8.60;99.90
3734;HTU21D;1882;52.256;8.874;2024-03-02T08:15:33;8.60;99.90
3734;HTU21D;1882;52.256;8.874;2024-03-02T08:18:00;8.60;99.90
3734;HTU21D;1882;52.256;8.874;2024-03-02T08:20:27;8.60;99.90
3734;HTU21D;1882;52.256;8.874;2024-03-02T08:22:54;8.70;99.90
3734;HTU21D;1882;52.256;8.874;2024-03-02T08:25:21;8.80;99.90
3734;HTU21D;1882;52.256;8.874;2024-03-02T08:27:49;8.90;99.90
3734;HTU21D;1882;52.256;8.874;2024-03-02T08:30:16;9.00;99.90
3734;HTU21D;1882;52.256;8.874;2024-03-02T08:32:44;9.10;99.90
3734;HTU21D;1882;52.256;8.874;2024-03-02T08:35:13;9.30;99.90
3734;HTU21D;1882;52.256;8.874;2024-03-02T08:37:42;9.40;99.90
3734;HTU21D;1882;52.256;8.874;2024-03-02T08:40:10;9.50;98.80
3734;HTU21D;1882;52.256;8.874;2024-03-02T08:42:41;9.60;99.20
3734;HTU21D;1882;52.256;8.874;2024-03-02T08:45:08;9.60;98.10
3734;HTU21D;1882;52.256;8.874;2024-03-02T08:47:35;9.60;97.00
3734;HTU21D;1882;52.256;8.874;2024-03-02T08:50:02;9.60;97.10
3734;HTU21D;1882;52.256;8.874;2024-03-02T08:52:30;9.60;96.40
3734;HTU21D;1882;52.256;8.874;2024-03-02T08:54:57;9.70;95.10
3734;HTU21D;1882;52.256;8.874;2024-03-02T08:57:24;9.70;94.40
3734;HTU21D;1882;52.256;8.874;2024-03-02T08:59:51;9.70;94.10
3734;HTU21D;1882;52.256;8.874;2024-03-02T09:02:18;9.80;93.40
3734;HTU21D;1882;52.256;8.874;2024-03-02T09:04:45;9.80;92.60
3734;HTU21D;1882;52.256;8.874;2024-03-02T09:07:12;9.90;93.40
3734;HTU21D;1882;52.256;8.874;2024-03-02T09:09:39;9.90;91.10
3734;HTU21D;1882;52.256;8.874;2024-03-02T09:12:07;10.00;89.20
3734;HTU21D;1882;52.256;8.874;2024-03-02T09:14:35;10.10;89.30
3734;HTU21D;1882;52.256;8.874;2024-03-02T09:17:03;10.20;87.90
3734;HTU21D;1882;52.256;8.874;2024-03-02T09:19:30;10.30;84.10
3734;HTU21D;1882;52.256;8.874;2024-03-02T09:21:57;10.40;79.60
3734;HTU21D;1882;52.256;8.874;2024-03-02T09:24:25;10.50;79.90
3734;HTU21D;1882;52.256;8.874;2024-03-02T09:26:52;10.60;77.70
3734;HTU21D;1882;52.256;8.874;2024-03-02T09:29:19;10.60;72.80
3734;HTU21D;1882;52.256;8.874;2024-03-02T09:31:47;10.70;72.00
3734;HTU21D;1882;52.256;8.874;2024-03-02T09:34:14;10.80;69.10
3734;HTU21D;1882;52.256;8.874;2024-03-02T09:36:42;11.00;70.00
3734;HTU21D;1882;52.256;8.874;2024-03-02T09:39:10;11.10;66.40
3734;HTU21D;1882;52.256;8.874;2024-03-02T09:41:37;11.20;65.80
3734;HTU21D;1882;52.256;8.874;2024-03-02T09:44:05;11.20;62.20
3734;HTU21D;1882;52.256;8.874;2024-03-02T09:46:32;11.20;65.50
3734;HTU21D;1882;52.256;8.874;2024-03-02T09:48:59;11.30;63.00
3734;HTU21D;1882;52.256;8.874;2024-03-02T09:51:26;11.40;62.80
3734;HTU21D;1882;52.256;8.874;2024-03-02T09:53:55;11.40;61.50
3734;HTU21D;1882;52.256;8.874;2024-03-02T09:56:29;11.40;60.70
3734;HTU21D;1882;52.256;8.874;2024-03-02T09:58:56;11.50;59.80
3734;HTU21D;1882;52.256;8.874;2024-03-02T10:01:23;11.60;59.30
3734;HTU21D;1882;52.256;8.874;2024-03-02T10:03:50;11.60;59.40
3734;HTU21D;1882;52.256;8.874;2024-03-02T10:08:48;11.70;61.10
3734;HTU21D;1882;52.256;8.874;2024-03-02T10:11:29;11.80;58.70
3734;HTU21D;1882;52.256;8.874;2024-03-02T10:14:07;11.80;58.70
3734;HTU21D;1882;52.256;8.874;2024-03-02T10:16:36;11.90;58.40
3734;HTU21D;1882;52.256;8.874;2024-03-02T10:19:25;11.90;56.70
3734;HTU21D;1882;52.256;8.874;2024-03-02T10:21:54;11.90;56.60
3734;HTU21D;1882;52.256;8.874;2024-03-02T10:24:22;12.00;56.80
3734;HTU21D;1882;52.256;8.874;2024-03-02T10:26:49;12.00;56.50
3734;HTU21D;1882;52.256;8.874;2024-03-02T10:29:17;12.00;57.70
3734;HTU21D;1882;52.256;8.874;2024-03-02T10:31:45;12.00;56.80
3734;HTU21D;1882;52.256;8.874;2024-03-02T10:34:13;12.00;55.00
3734;HTU21D;1882;52.256;8.874;2024-03-02T10:36:41;12.10;56.70
3734;HTU21D;1882;52.256;8.874;2024-03-02T10:39:09;12.20;55.90
3734;HTU21D;1882;52.256;8.874;2024-03-02T10:41:38;12.30;55.50
3734;HTU21D;1882;52.256;8.874;2024-03-02T10:44:06;12.30;55.60
3734;HTU21D;1882;52.256;8.874;2024-03-02T10:46:35;12.40;53.40
3734;HTU21D;1882;52.256;8.874;2024-03-02T10:49:04;12.40;54.30
3734;HTU21D;1882;52.256;8.874;2024-03-02T10:51:34;12.40;53.00
3734;HTU21D;1882;52.256;8.874;2024-03-02T10:54:04;12.40;53.90
3734;HTU21D;1882;52.256;8.874;2024-03-02T10:56:33;12.40;54.10
3734;HTU21D;1882;52.256;8.874;2024-03-02T11:01:48;12.20;52.80
3734;HTU21D;1882;52.256;8.874;2024-03-02T11:04:18;12.10;53.30
3734;HTU21D;1882;52.256;8.874;2024-03-02T11:06:48;12.20;54.60
3734;HTU21D;1882;52.256;8.874;2024-03-02T11:09:19;12.20;53.40
3734;HTU21D;1882;52.256;8.874;2024-03-02T11:11:53;12.20;54.10
3734;HTU21D;1882;52.256;8.874;2024-03-02T11:14:23;12.30;53.50
3734;HTU21D;1882;52.256;8.874;2024-03-02T11:16:51;12.40;54.20
3734;HTU21D;1882;52.256;8.874;2024-03-02T11:19:19;12.40;53.40
3734;HTU21D;1882;52.256;8.874;2024-03-02T11:21:46;12.40;53.00
3734;HTU21D;1882;52.256;8.874;2024-03-02T11:26:54;12.40;54.20
3734;HTU21D;1882;52.256;8.874;2024-03-02T11:29:53;12.40;53.30
3734;HTU21D;1882;52.256;8.874;2024-03-02T11:32:21;12.30;52.90
3734;HTU21D;1882;52.256;8.874;2024-03-02T11:34:51;12.20;53.20
3734;HTU21D;1882;52.256;8.874;2024-03-02T11:37:19;12.30;53.50
3734;HTU21D;1882;52.256;8.874;2024-03-02T11:39:50;12.40;53.00
3734;HTU21D;1882;52.256;8.874;2024-03-02T11:42:18;12.40;52.60
3734;HTU21D;1882;52.256;8.874;2024-03-02T11:44:46;12.40;51.50
3734;HTU21D;1882;52.256;8.874;2024-03-02T11:47:15;12.40;52.30
3734;HTU21D;1882;52.256;8.874;2024-03-02T11:49:50;12.40;52.70
3734;HTU21D;1882;52.256;8.874;2024-03-02T11:52:18;12.40;52.00
3734;HTU21D;1882;52.256;8.874;2024-03-02T11:54:46;12.50;52.60
3734;HTU21D;1882;52.256;8.874;2024-03-02T11:57:15;12.60;52.10
3734;HTU21D;1882;52.256;8.874;2024-03-02T11:59:43;12.60;51.80
3734;HTU21D;1882;52.256;8.874;2024-03-02T12:02:20;12.60;51.50
3734;HTU21D;1882;52.256;8.874;2024-03-02T12:04:48;12.80;50.10
3734;HTU21D;1882;52.256;8.874;2024-03-02T12:07:19;12.80;50.40
3734;HTU21D;1882;52.256;8.874;2024-03-02T12:10:00;12.80;50.90
3734;HTU21D;1882;52.256;8.874;2024-03-02T12:12:28;12.90;51.10
3734;HTU21D;1882;52.256;8.874;2024-03-02T12:14:55;12.80;50.40
3734;HTU21D;1882;52.256;8.874;2024-03-02T12:17:23;12.90;50.60
3734;HTU21D;1882;52.256;8.874;2024-03-02T12:19:49;12.90;49.20
3734;HTU21D;1882;52.256;8.874;2024-03-02T12:22:16;12.90;50.20
3734;HTU21D;1882;52.256;8.874;2024-03-02T12:24:44;13.00;50.10
3734;HTU21D;1882;52.256;8.874;2024-03-02T12:27:15;12.90;49.30
3734;HTU21D;1882;52.256;8.874;2024-03-02T12:29:43;12.90;49.00
3734;HTU21D;1882;52.256;8.874;2024-03-02T12:32:10;12.90;48.30
3734;HTU21D;1882;52.256;8.874;2024-03-02T12:34:38;12.80;48.60
3734;HTU21D;1882;52.256;8.874;2024-03-02T12:37:05;12.90;48.70
3734;HTU21D;1882;52.256;8.874;2024-03-02T12:39:32;12.90;48.60
3734;HTU21D;1882;52.256;8.874;2024-03-02T12:42:00;13.00;48.50
3734;HTU21D;1882;52.256;8.874;2024-03-02T12:44:29;13.00;47.70
3734;HTU21D;1882;52.256;8.874;2024-03-02T12:46:56;13.00;47.70
3734;HTU21D;1882;52.256;8.874;2024-03-02T12:49:26;13.10;49.20
3734;HTU21D;1882;52.256;8.874;2024-03-02T12:51:55;13.10;49.00
3734;HTU21D;1882;52.256;8.874;2024-03-02T12:54:24;13.10;48.50
3734;HTU21D;1882;52.256;8.874;2024-03-02T12:56:52;13.10;47.50
3734;HTU21D;1882;52.256;8.874;2024-03-02T12:59:23;13.10;49.30
3734;HTU21D;1882;52.256;8.874;2024-03-02T13:01:55;13.10;47.50
3734;HTU21D;1882;52.256;8.874;2024-03-02T13:04:26;13.20;47.40
3734;HTU21D;1882;52.256;8.874;2024-03-02T13:06:55;13.10;47.80
3734;HTU21D;1882;52.256;8.874;2024-03-02T13:09:24;13.10;48.60
3734;HTU21D;1882;52.256;8.874;2024-03-02T13:11:51;13.20;47.50
3734;HTU21D;1882;52.256;8.874;2024-03-02T13:14:21;13.20;47.60
3734;HTU21D;1882;52.256;8.874;2024-03-02T13:16:50;13.30;47.10
3734;HTU21D;1882;52.256;8.874;2024-03-02T13:19:19;13.20;48.60
3734;HTU21D;1882;52.256;8.874;2024-03-02T13:21:46;13.20;47.00
3734;HTU21D;1882;52.256;8.874;2024-03-02T13:24:13;13.20;46.90
3734;HTU21D;1882;52.256;8.874;2024-03-02T13:26:40;13.20;47.30
3734;HTU21D;1882;52.256;8.874;2024-03-02T13:29:07;13.30;47.90
3734;HTU21D;1882;52.256;8.874;2024-03-02T13:31:34;13.30;47.30
3734;HTU21D;1882;52.256;8.874;2024-03-02T13:34:01;13.30;46.60
3734;HTU21D;1882;52.256;8.874;2024-03-02T13:36:28;13.20;47.70
3734;HTU21D;1882;52.256;8.874;2024-03-02T13:38:55;13.20;47.00
3734;HTU21D;1882;52.256;8.874;2024-03-02T13:41:22;13.30;47.90
3734;HTU21D;1882;52.256;8.874;2024-03-02T13:43:49;13.30;47.00
3734;HTU21D;1882;52.256;8.874;2024-03-02T13:46:18;13.40;46.80
3734;HTU21D;1882;52.256;8.874;2024-03-02T13:48:45;13.40;47.10
3734;HTU21D;1882;52.256;8.874;2024-03-02T13:51:12;13.50;46.50
3734;HTU21D;1882;52.256;8.874;2024-03-02T13:53:39;13.50;47.20
3734;HTU21D;1882;52.256;8.874;2024-03-02T13:56:06;13.50;46.90
3734;HTU21D;1882;52.256;8.874;2024-03-02T13:58:33;13.50;44.80
3734;HTU21D;1882;52.256;8.874;2024-03-02T14:01:00;13.60;46.20
3734;HTU21D;1882;52.256;8.874;2024-03-02T14:03:28;13.50;46.10
3734;HTU21D;1882;52.256;8.874;2024-03-02T14:05:57;13.60;46.10
3734;HTU21D;1882;52.256;8.874;2024-03-02T14:08:24;13.50;46.30
3734;HTU21D;1882;52.256;8.874;2024-03-02T14:10:51;13.60;44.90
3734;HTU21D;1882;52.256;8.874;2024-03-02T14:13:18;13.60;45.30
3734;HTU21D;1882;52.256;8.874;2024-03-02T14:15:45;13.60;46.90
3734;HTU21D;1882;52.256;8.874;2024-03-02T14:18:12;13.40;45.30
3734;HTU21D;1882;52.256;8.874;2024-03-02T14:20:39;13.40;46.40
3734;HTU21D;1882;52.256;8.874;2024-03-02T14:23:09;13.40;46.30
3734;HTU21D;1882;52.256;8.874;2024-03-02T14:25:37;13.50;46.60
3734;HTU21D;1882;52.256;8.874;2024-03-02T14:28:04;13.50;46.40
3734;HTU21D;1882;52.256;8.874;2024-03-02T14:30:51;13.50;47.00
3734;HTU21D;1882;52.256;8.874;2024-03-02T14:33:18;13.60;45.90
3734;HTU21D;1882;52.256;8.874;2024-03-02T14:35:45;13.60;46.20
3734;HTU21D;1882;52.256;8.874;2024-03-02T14:38:12;13.60;46.00
3734;HTU21D;1882;52.256;8.874;2024-03-02T14:40:39;13.50;46.40
3734;HTU21D;1882;52.256;8.874;2024-03-02T14:43:06;13.50;45.70
3734;HTU21D;1882;52.256;8.874;2024-03-02T14:45:33;13.50;45.10
3734;HTU21D;1882;52.256;8.874;2024-03-02T14:48:00;13.60;45.80
3734;HTU21D;1882;52.256;8.874;2024-03-02T14:50:28;13.70;45.00
3734;HTU21D;1882;52.256;8.874;2024-03-02T14:52:55;13.70;44.70
3734;HTU21D;1882;52.256;8.874;2024-03-02T14:55:24;13.60;44.90
3734;HTU21D;1882;52.256;8.874;2024-03-02T14:57:51;13.60;44.70
3734;HTU21D;1882;52.256;8.874;2024-03-02T15:00:18;13.60;43.90
3734;HTU21D;1882;52.256;8.874;2024-03-02T15:02:45;13.60;42.80
3734;HTU21D;1882;52.256;8.874;2024-03-02T15:05:12;13.70;43.60
3734;HTU21D;1882;52.256;8.874;2024-03-02T15:07:39;13.60;43.70
3734;HTU21D;1882;52.256;8.874;2024-03-02T15:10:06;13.70;43.10
3734;HTU21D;1882;52.256;8.874;2024-03-02T15:12:34;13.60;44.20
3734;HTU21D;1882;52.256;8.874;2024-03-02T15:15:01;13.60;43.30
3734;HTU21D;1882;52.256;8.874;2024-03-02T15:17:28;13.60;43.10
3734;HTU21D;1882;52.256;8.874;2024-03-02T15:19:55;13.60;43.60
3734;HTU21D;1882;52.256;8.874;2024-03-02T15:22:22;13.60;42.10
3734;HTU21D;1882;52.256;8.874;2024-03-02T15:24:49;13.60;42.50
3734;HTU21D;1882;52.256;8.874;2024-03-02T15:27:17;13.60;42.60
3734;HTU21D;1882;52.256;8.874;2024-03-02T15:29:44;13.70;41.90
3734;HTU21D;1882;52.256;8.874;2024-03-02T15:32:11;13.70;41.70
3734;HTU21D;1882;52.256;8.874;2024-03-02T15:34:38;13.60;42.20
3734;HTU21D;1882;52.256;8.874;2024-03-02T15:37:05;13.60;42.20
3734;HTU21D;1882;52.256;8.874;2024-03-02T15:39:32;13.60;42.20
3734;HTU21D;1882;52.256;8.874;2024-03-02T15:41:59;13.50;42.60
3734;HTU21D;1882;52.256;8.874;2024-03-02T15:44:26;13.50;42.00
3734;HTU21D;1882;52.256;8.874;2024-03-02T15:46:53;13.40;43.10
3734;HTU21D;1882;52.256;8.874;2024-03-02T15:49:20;13.40;42.00
3734;HTU21D;1882;52.256;8.874;2024-03-02T15:51:47;13.30;43.10
3734;HTU21D;1882;52.256;8.874;2024-03-02T15:54:14;13.30;42.60
3734;HTU21D;1882;52.256;8.874;2024-03-02T15:56:41;13.30;42.50
3734;HTU21D;1882;52.256;8.874;2024-03-02T15:59:08;13.30;43.00
3734;HTU21D;1882;52.256;8.874;2024-03-02T16:01:35;13.20;42.40
3734;HTU21D;1882;52.256;8.874;2024-03-02T16:04:03;13.20;41.90
3734;HTU21D;1882;52.256;8.874;2024-03-02T16:06:30;13.20;42.00
3734;HTU21D;1882;52.256;8.874;2024-03-02T16:08:57;13.20;42.50
3734;HTU21D;1882;52.256;8.874;2024-03-02T16:11:26;13.10;42.60